Nearby METAR Reports


KPAM - Tyndall AFB, FL, USA
Distance from station: SSE 4mi, 7km
Updated: Wed, 23-May-2018 6:56am CDT
Few Clouds
Few Clouds
 Wind from S
Wind: S 8 mph , 13 km/h
Temperature: 79°F , 26°C
Dew Point: 73°F , 23°C
Humidity: 84%
Barometer: 30.07 inHg , 1018.3 hPa
Clouds: Few Clouds
Visibility: 10 miles , 16 km
Cloud details: Few Clouds 1500 ft
2018/05/23 11:56 KPAM 231156Z AUTO 17007KT 10SM FEW015 26/23 A3007 RMK AO2 SLP186 70009 T02550228 10255 20238 52013
KECP - Panama City Beach, FL, USA
Distance from station: NW 20mi, 32km
Updated: Wed, 23-May-2018 6:53am CDT
Few Clouds
Few Clouds
 Wind from calm
Wind: Calm
Temperature: 73°F , 23°C
Dew Point: 73°F , 23°C
Humidity: 100%
Barometer: 30.06 inHg , 1017.9 hPa
Clouds: Few Clouds
Visibility: 10 miles , 16 km
Cloud details: Few Clouds 1800 ft
2018/05/23 11:53 KECP 231153Z 00000KT 10SM FEW018 23/23 A3006 RMK AO2 SLP191 70016 T02330228 10233 20217 53015
 
KAAF - Apalachicola, FL, USA
Distance from station: SE 43mi, 69km
Updated: Wed, 23-May-2018 6:53am CDT
Mostly cloudy
Mostly cloudy
 Wind from S
Wind: S 8 mph , 13 km/h
Temperature: 79°F , 26°C
Dew Point: 75°F , 24°C
Humidity: 89%
Barometer: 30.07 inHg , 1018.3 hPa
Clouds: Mostly cloudy
Visibility: 10 miles , 16 km
Cloud details: Partly cloudy 1500 ft
Mostly cloudy 2500 ft
2018/05/23 11:53 KAAF 231153Z AUTO 18007KT 10SM SCT015 BKN025 26/24 A3007 RMK AO2 SLP181 T02610239 10261 20250 53006
KMAI - Marianna, FL, USA
Distance from station: NNE 55mi, 88km
Updated: Wed, 23-May-2018 7:03am CDT
Mist, Overcast
Mist, Overcast
 Wind from S
Wind: S 3 mph , 6 km/h
Temperature: 72°F , 22°C
Dew Point: 72°F , 22°C
Humidity: 100%
Barometer: 30.08 inHg , 1018.6 hPa
Summary: Mist
Clouds: Overcast
Visibility: 3 miles , 5 km
Cloud details: Overcast 200 ft
2018/05/23 12:03 KMAI 231203Z AUTO 18003KT 3SM BR OVC002 22/22 A3008 RMK AO2 T02220222
 
KDTS - Destin, FL, USA
Distance from station: WNW 56mi, 90km
Updated: Wed, 23-May-2018 6:53am CDT
Few Clouds
Few Clouds
 Wind from varies
Wind: varies 3 mph , 6 km/h
Temperature: 79°F , 26°C
Dew Point: 70°F , 21°C
Humidity: 74%
Barometer: 30.06 inHg , 1017.9 hPa
Clouds: Few Clouds
Visibility: 10 miles , 16 km
Cloud details: Few Clouds 2100 ft
2018/05/23 11:53 KDTS 231153Z VRB03KT 10SM FEW021 26/21 A3006 RMK AO2 SLP177 T02560206 10261 20250 53014 $
KVPS - Valpariso-Eglin AFB, FL, USA
Distance from station: WNW 60mi, 97km
Updated: Wed, 23-May-2018 6:56am CDT
Mostly cloudy
Mostly cloudy
 Wind from calm
Wind: Calm
Temperature: 79°F , 26°C
Dew Point: 72°F , 22°C
Humidity: 79%
Barometer: 30.05 inHg , 1017.6 hPa
Clouds: Mostly cloudy
Visibility: 10 miles , 16 km
Cloud details: Partly cloudy 1900 ft
Partly cloudy 5000 ft
Mostly cloudy 25000 ft
2018/05/23 11:56 KVPS 231156Z 00000KT 10SM SCT019 SCT050 BKN250 26/22 A3005 RMK AO2A SLP181 T02550224 10260 20229 52014 $
 
KEGI - Duke Field, FL, USA
Distance from station: WNW 66mi, 105km
Updated: Wed, 23-May-2018 6:56am CDT
Clear
Clear
 Wind from calm
Wind: Calm
Temperature: 72°F , 22°C
Dew Point: 72°F , 22°C
Humidity: 100%
Barometer: 30.06 inHg , 1017.9 hPa
Clouds: Clear
Visibility: 10 miles , 16 km
2018/05/23 11:56 KEGI 231156Z AUTO 00000KT 10SM CLR 22/22 A3006 RMK AO2 SLP179 70018 T02240224 10224 20199 52015 $
KHRT - Hurlburt Field, FL, USA
Distance from station: WNW 67mi, 108km
Updated: Wed, 23-May-2018 6:56am CDT
Few Clouds
Few Clouds
 Wind from calm
Wind: Calm
Temperature: 73°F , 23°C
Dew Point: 72°F , 22°C
Humidity: 94%
Barometer: 30.04 inHg , 1017.3 hPa
Clouds: Few Clouds
Visibility: 10 miles , 16 km
Cloud details: Few Clouds 2800 ft
2018/05/23 11:56 KHRT 231156Z 00000KT 10SM FEW028 23/22 A3004 RMK AO2A SLP174 70004 T02330217 10261 20225 52014 $
 
KCEW - Crestview, FL, USA
Distance from station: NW 72mi, 115km
Updated: Wed, 23-May-2018 7:12am CDT
Partly cloudy
Partly cloudy
 Wind from ENE
Wind: ENE 3 mph , 6 km/h
Temperature: 72°F , 22°C
Dew Point: 70°F , 21°C
Humidity: 94%
Barometer: 30.09 inHg , 1019 hPa
Clouds: Partly cloudy
Visibility: 10 miles , 16 km
Cloud details: Partly cloudy 1300 ft
2018/05/23 12:12 KCEW 231212Z AUTO 07003KT 10SM SCT013 22/21 A3009 RMK AO2 T02220211
KTLH - Tallahassee, FL, USA
Distance from station: ENE 77mi, 123km
Updated: Wed, 31-Dec-1969 6:00pm CST
NOT Current
unable to load KTLH data RC=404 Not Found
unable to load KTLH data RC=404 Not Found
 
 
KOZR - Cairns AAF, AL, USA
Distance from station: N 81mi, 130km
Updated: Wed, 23-May-2018 7:16am CDT
Fog, Overcast
Fog, Overcast
 Wind from S
Wind: S 3 mph , 6 km/h
Temperature: 73°F , 23°C
Dew Point: 73°F , 23°C
Humidity: 100%
Barometer: 30.08 inHg , 1018.6 hPa
Summary: Fog
Clouds: Overcast
Visibility: 1/2 mile , 2 km
Cloud details: Overcast 200 ft
2018/05/23 12:16 KOZR 231216Z AUTO 18003KT 1/2SM R06/3000V4000FT FG OVC002 23/23 A3008 RMK AO2 SLP186
KDHN - Dothan, AL, USA
Distance from station: N 83mi, 134km
Updated: Wed, 23-May-2018 7:01am CDT
Fog, Overcast
Fog, Overcast
 Wind from SSW
Wind: SSW 5 mph , 7 km/h
Temperature: 73°F , 23°C
Dew Point: 72°F , 22°C
Humidity: 94%
Barometer: 30.12 inHg , 1020 hPa
Summary: Fog
Clouds: Overcast
Visibility: 1/2 mile , 2 km
Cloud details: Overcast 200 ft
2018/05/23 12:01 KDHN 231201Z 20004KT 1/2SM FG OVC002 23/22 A3012 RMK AO2 T02280217 RVRNO